Meteo Giornale » Osservazioni meteo Stati Uniti (USA) » Manhattan
ore: 19:52 - Osservazioni Meteo Manhattan
Lat. 39° 8' N Lon. 96° 40' W Alt. 321 metri s.l.m.
32 °C
Sereno
Temp. 24 Ore
22 °C
38 °C
Sud
13 Km/h
Dew point 17 °C
Umidità 40 %
Visibilità 10 Km
Il sole sorge alle ore 06:55
Il sole tramonta alle ore 19:57
| Data e Ora | Cielo e Fenomeni | T °C | DP °C | Um. % | Pres. hPa | Vis. km | Vento km/h | |
|---|---|---|---|---|---|---|---|---|
| Oggi h: 19:52 | Sereno | 32 | 17 | 40 | 1011 | 10 | S 13 | |
| Oggi h: 18:52 | Sereno | 35 | 16 | 32 | 1011 | 10 | S 14.8 | |
| Oggi h: 17:52 | Sereno | 37 | 16 | 28 | 1012 | 10 | S 14.8 | |
| Oggi h: 16:52 | Sereno | 38 | 16 | 27 | 1012 | 10 | S 20.3 | |
| Oggi h: 15:52 | Sereno | 38 | 17 | 29 | 1012 | 10 | S 18.5 | |
| Oggi h: 14:52 | Poco Nuvoloso | 38 | 16 | 27 | 1013 | 10 | S 20.3 | |
| Oggi h: 13:52 | Sereno | 38 | 17 | 29 | 1014 | 10 | S/SO 20.3 | |
| Oggi h: 12:52 | Poco Nuvoloso | 37 | 17 | 30 | 1014 | 10 | S/SO 22.2 | |
| Oggi h: 11:52 | Sereno | 35 | 18 | 36 | 1015 | 10 | SO 22.2 | |
| Oggi h: 10:52 | Sereno | 33 | 18 | 41 | 1015 | 10 | SO 20.3 | |
| Oggi h: 09:52 | Sereno | 30 | 17 | 45 | 1015 | 10 | SO 22.2 | |
| Oggi h: 08:52 | Sereno | 28 | 17 | 51 | 1015 | 10 | SO 13 | |
| Oggi h: 07:52 | Sereno | 25 | 16 | 57 | 1015 | 10 | SO 14.8 | |
| Oggi h: 06:52 | Sereno | 22 | 16 | 68 | 1015 | 10 | N 5.5 | |
| Oggi h: 05:52 | Sereno | 25 | 16 | 57 | 1015 | 10 | SO 14.8 | |
| Oggi h: 04:52 | Sereno | 24 | 16 | 60 | 1014 | 10 | S/SO 11.1 | |
| Oggi h: 03:52 | Sereno | 23 | 16 | 64 | 1014 | 10 | SO 7.4 | |
| Oggi h: 02:52 | Sereno | 26 | 16 | 54 | 1014 | 10 | N 5.5 | |
| Oggi h: 01:52 | Sereno | 26 | 17 | 57 | 1014 | 10 | SO 13 | |
| Oggi h: 00:52 | Sereno | 26 | 17 | 57 | 1014 | 10 | S/SO 9.3 | |
| Ieri h: 23:52 | Sereno | 27 | 17 | 54 | 1014 | 10 | N 0 | |
| Ieri h: 22:52 | Sereno | 28 | 17 | 51 | 1013 | 10 | S/SO 9.3 | |
| Ieri h: 21:52 | Sereno | 29 | 17 | 48 | 1013 | 10 | S 13 | |
| Ieri h: 20:52 | Sereno | 29 | 18 | 51 | 1012 | 10 | S 9.3 | |



